Time;durP1;ratioP1;P1;durP2;ratioP2;P2;SDS_P1;SDS_P2;PMS_P1;PMS_P2;Temp;Humidity;BMP_temperature;BMP_pressure;BME280_temperature;BME280_humidity;BME280_pressure;Samples;Min_cycle;Max_cycle;Signal;HPM_P1;HPM_P2
2022/10/16 05:03:34;;;;;;;7.85;2.95;;;;;;;12.33;100.00;101020.00;6387886;22;20041;-74
2022/10/16 05:06:00;;;;;;;4.47;2.97;;;;;;;12.31;100.00;101013.97;6395459;22;20424;-74
2022/10/16 05:08:25;;;;;;;4.70;3.13;;;;;;;12.29;100.00;101019.97;6397710;22;19998;-74
2022/10/16 05:10:51;;;;;;;6.57;3.10;;;;;;;12.33;100.00;101018.03;6397500;22;20041;-74
2022/10/16 05:13:16;;;;;;;7.97;3.08;;;;;;;12.32;100.00;101018.41;6371526;22;20456;-74
2022/10/16 05:15:41;;;;;;;8.15;2.88;;;;;;;12.26;100.00;101012.31;6337245;22;20347;-74
2022/10/16 05:18:08;;;;;;;9.07;2.67;;;;;;;12.30;100.00;101015.16;6363392;22;20039;-74
2022/10/16 05:20:34;;;;;;;5.45;2.80;;;;;;;12.27;100.00;101016.75;6336503;22;20047;-74
2022/10/16 05:22:59;;;;;;;6.22;2.70;;;;;;;12.28;100.00;101035.19;6368147;22;20006;-75
2022/10/16 05:25:24;;;;;;;8.52;2.72;;;;;;;12.30;100.00;101029.19;6366545;22;20002;-74
2022/10/16 05:27:50;;;;;;;6.82;2.63;;;;;;;12.32;100.00;101033.22;6363850;22;20005;-74
2022/10/16 05:30:17;;;;;;;6.30;3.08;;;;;;;12.29;100.00;101030.38;6362690;22;20005;-74
2022/10/16 05:32:46;;;;;;;2.15;1.88;;;;;;;12.32;100.00;101036.03;6361372;22;20029;-74
2022/10/16 05:35:12;;;;;;;4.90;3.28;;;;;;;12.26;100.00;101042.38;6365580;22;20009;-74
2022/10/16 05:37:37;;;;;;;4.07;2.75;;;;;;;12.25;100.00;101041.59;6364047;22;20433;-74
2022/10/16 05:40:04;;;;;;;6.72;2.70;;;;;;;12.31;100.00;101045.66;6365111;22;20501;-74
2022/10/16 05:42:29;;;;;;;4.72;3.08;;;;;;;12.30;100.00;101040.44;6362136;22;20062;-74
2022/10/16 05:44:55;;;;;;;6.28;2.25;;;;;;;12.30;100.00;101041.22;6364591;22;20399;-74
2022/10/16 05:47:20;;;;;;;4.03;2.63;;;;;;;12.29;100.00;101047.22;6335501;22;20032;-74
2022/10/16 05:49:46;;;;;;;7.28;2.72;;;;;;;12.27;100.00;101050.44;6362754;22;20073;-75
2022/10/16 05:52:11;;;;;;;5.65;2.40;;;;;;;12.25;100.00;101047.19;6360290;22;20189;-75
2022/10/16 05:54:36;;;;;;;5.72;2.42;;;;;;;12.28;100.00;101057.66;6361754;22;20069;-75
2022/10/16 05:57:02;;;;;;;4.70;2.15;;;;;;;12.31;100.00;101059.69;6363902;22;20325;-74
2022/10/16 05:59:27;;;;;;;4.25;2.40;;;;;;;12.30;100.00;101066.50;6335381;22;20469;-75
2022/10/16 06:01:53;;;;;;;4.22;2.60;;;;;;;12.30;100.00;101071.31;6357227;22;20006;-74
2022/10/16 06:04:18;;;;;;;5.55;2.60;;;;;;;12.30;100.00;101071.31;6362824;22;20013;-74
2022/10/16 06:06:44;;;;;;;8.80;4.30;;;;;;;12.35;100.00;101080.19;6359151;22;19998;-74
2022/10/16 06:09:09;;;;;;;4.10;2.50;;;;;;;12.33;100.00;101081.75;6357651;22;20044;-75
2022/10/16 06:11:36;;;;;;;3.92;2.45;;;;;;;12.37;100.00;101082.59;6357497;22;20010;-75
2022/10/16 06:14:06;;;;;;;7.88;2.50;;;;;;;12.30;100.00;101088.94;6357042;22;20022;-74
2022/10/16 06:16:32;;;;;;;4.70;2.42;;;;;;;12.31;100.00;101090.56;6358015;22;20022;-73
2022/10/16 06:18:59;;;;;;;4.80;2.67;;;;;;;12.30;100.00;101088.94;6361885;22;20003;-75
2022/10/16 06:21:25;;;;;;;4.85;2.50;;;;;;;12.31;100.00;101089.75;6360199;22;20008;-74
2022/10/16 06:23:51;;;;;;;7.95;2.90;;;;;;;12.37;100.00;101100.22;6363076;22;20010;-75
2022/10/16 06:26:19;;;;;;;4.70;2.67;;;;;;;12.38;100.00;101101.88;6362920;22;20006;-74
2022/10/16 06:28:45;;;;;;;6.95;2.10;;;;;;;12.37;100.00;101094.63;6363285;22;20377;-75
2022/10/16 06:31:11;;;;;;;4.80;2.05;;;;;;;12.37;100.00;101094.63;6361160;22;20002;-76
2022/10/16 06:33:38;;;;;;;5.40;2.47;;;;;;;12.41;100.00;101103.88;6358543;22;20002;-75
2022/10/16 06:36:07;;;;;;;5.63;2.75;;;;;;;12.39;100.00;101109.06;6359899;22;20381;-75
2022/10/16 06:38:32;;;;;;;6.35;2.15;;;;;;;12.44;100.00;101109.94;6357652;22;19998;-75
2022/10/16 06:40:58;;;;;;;6.78;3.42;;;;;;;12.48;100.00;101110.78;6331077;22;20010;-75
2022/10/16 06:43:24;;;;;;;5.72;2.33;;;;;;;12.48;100.00;101116.38;6327720;22;20481;-75
2022/10/16 06:45:56;;;;;;;3.53;2.50;;;;;;;12.50;100.00;101122.41;6359116;22;19998;-74
2022/10/16 06:48:23;;;;;;;8.77;3.05;;;;;;;12.53;100.00;101124.47;6301162;22;20440;-74
2022/10/16 06:51:08;;;;;;;6.78;2.72;;;;;;;12.53;100.00;101136.50;6198804;23;20313;-75
2022/10/16 06:53:35;;;;;;;7.25;2.17;;;;;;;12.58;100.00;101141.75;6196620;23;20008;-74
2022/10/16 06:56:13;;;;;;;3.35;2.45;;;;;;;12.62;100.00;101155.84;6197676;23;20339;-75
2022/10/16 06:58:39;;;;;;;9.75;2.70;;;;;;;12.62;100.00;101155.84;6249993;22;20014;-74
2022/10/16 07:01:04;;;;;;;5.57;2.33;;;;;;;12.63;100.00;101159.47;6330571;22;20440;-75
2022/10/16 07:03:30;;;;;;;7.20;2.67;;;;;;;12.64;100.00;101167.50;6357739;22;19998;-75
2022/10/16 07:05:56;;;;;;;6.95;3.05;;;;;;;12.63;100.00;101167.88;6356275;22;20065;-74
2022/10/16 07:08:21;;;;;;;8.13;2.47;;;;;;;12.63;100.00;101162.25;6359284;22;20006;-75
2022/10/16 07:10:46;;;;;;;8.88;2.75;;;;;;;12.59;100.00;101157.44;6333538;22;20002;-74
2022/10/16 07:13:15;;;;;;;3.60;2.42;;;;;;;12.59;100.00;101156.63;6358462;22;20107;-75
2022/10/16 07:15:41;;;;;;;6.32;1.77;;;;;;;12.60;100.00;101161.84;6359024;22;20002;-74
2022/10/16 07:18:06;;;;;;;1.77;1.30;;;;;;;12.56;100.00;101152.56;6329181;22;20010;-74
2022/10/16 07:20:32;;;;;;;3.45;1.30;;;;;;;12.56;100.00;101143.34;6331127;22;20009;-74
2022/10/16 07:22:57;;;;;;;4.78;1.25;;;;;;;12.55;100.00;101138.94;6332097;22;20085;-74
2022/10/16 07:25:23;;;;;;;2.15;1.13;;;;;;;12.54;100.00;101159.78;6359720;22;20049;-74
2022/10/16 07:27:48;;;;;;;4.43;1.30;;;;;;;12.52;100.00;101156.53;6333633;22;20085;-74
2022/10/16 07:30:13;;;;;;;3.47;1.52;;;;;;;12.52;100.00;101162.16;6333332;22;19998;-74
2022/10/16 07:32:39;;;;;;;4.93;2.00;;;;;;;12.54;100.00;101171.00;6358553;22;20021;-74
2022/10/16 07:35:04;;;;;;;5.55;2.75;;;;;;;12.57;100.00;101190.72;6332679;22;20009;-74
2022/10/16 07:37:30;;;;;;;3.25;2.17;;;;;;;12.57;100.00;101199.13;6359624;22;20002;-74
2022/10/16 07:39:55;;;;;;;5.53;2.38;;;;;;;12.60;100.00;101198.34;6360954;22;19998;-74
2022/10/16 07:42:20;;;;;;;6.57;2.53;;;;;;;12.65;100.00;101202.84;6306028;22;20092;-74
2022/10/16 07:44:46;;;;;;;7.18;3.15;;;;;;;12.67;100.00;101208.88;6333465;22;20409;-75
2022/10/16 07:47:11;;;;;;;6.85;2.42;;;;;;;12.68;100.00;101220.91;6360266;22;20386;-75
2022/10/16 07:49:36;;;;;;;8.65;2.72;;;;;;;12.78;100.00;101221.03;6360595;22;20005;-75
2022/10/16 07:52:02;;;;;;;7.30;3.45;;;;;;;12.92;100.00;101227.97;6357256;22;20279;-75
2022/10/16 07:54:27;;;;;;;5.13;2.28;;;;;;;13.69;100.00;101231.09;6330698;22;20014;-75
2022/10/16 07:56:53;;;;;;;3.38;2.35;;;;;;;14.18;100.00;101238.25;6199145;23;20015;-75
2022/10/16 07:59:18;;;;;;;7.95;3.40;;;;;;;13.35;100.00;101248.13;6200463;23;20011;-75
2022/10/16 08:01:43;;;;;;;5.05;2.22;;;;;;;13.81;100.00;101258.94;6304955;22;20001;-74
2022/10/16 08:04:09;;;;;;;5.70;3.20;;;;;;;14.18;100.00;101261.56;6201512;23;20582;-74
2022/10/16 08:06:37;;;;;;;7.07;3.08;;;;;;;14.13;100.00;101264.75;6199830;23;20008;-77
2022/10/16 08:09:03;;;;;;;9.25;3.92;;;;;;;13.31;100.00;101276.19;6200271;23;20001;-77
2022/10/16 08:11:28;;;;;;;9.77;2.95;;;;;;;13.15;100.00;101272.78;6202594;22;20012;-76
2022/10/16 08:13:53;;;;;;;8.20;3.50;;;;;;;13.07;100.00;101274.72;6200868;23;20348;-76
2022/10/16 08:16:19;;;;;;;10.35;3.33;;;;;;;13.08;100.00;101281.16;6197920;23;20039;-76
2022/10/16 08:18:45;;;;;;;5.97;3.83;;;;;;;13.05;100.00;101274.31;6197748;23;20336;-75
2022/10/16 08:21:16;;;;;;;6.50;3.08;;;;;;;13.04;100.00;101275.47;6199281;23;20012;-75
2022/10/16 08:23:43;;;;;;;4.32;3.10;;;;;;;13.06;100.00;101287.16;6201752;23;20008;-75
2022/10/16 08:26:09;;;;;;;6.93;3.25;;;;;;;13.04;100.00;101295.16;6195879;23;20068;-75
2022/10/16 08:28:35;;;;;;;4.63;2.80;;;;;;;13.05;100.00;101291.16;6202807;23;20001;-75
2022/10/16 08:31:08;;;;;;;6.82;3.15;;;;;;;13.04;100.00;101294.34;6204980;23;20288;-76
2022/10/16 08:33:34;;;;;;;;;;;;;;;13.04;100.00;101295.16;6204397;22;20416;-73
2022/10/16 08:36:00;;;;;;;3.35;2.42;;;;;;;13.07;100.00;101299.19;6178795;22;20347;-76
2022/10/16 08:38:26;;;;;;;5.75;2.50;;;;;;;13.12;100.00;101313.72;6206517;23;20001;-75
2022/10/16 08:40:54;;;;;;;10.82;3.45;;;;;;;13.13;100.00;101311.69;6204945;23;20054;-76
2022/10/16 08:43:19;;;;;;;8.80;2.65;;;;;;;13.17;100.00;101312.56;6204934;23;20005;-76
2022/10/16 08:46:16;;;;;;;7.85;2.30;;;;;;;13.25;100.00;101313.44;6179583;23;20258;-76
2022/10/16 08:48:50;;;;;;;9.40;2.90;;;;;;;13.23;100.00;101320.25;6204235;23;20089;-76
2022/10/16 08:51:23;;;;;;;8.27;2.53;;;;;;;13.29;100.00;101320.75;6206030;23;20001;-76
2022/10/16 08:53:55;;;;;;;6.65;2.92;;;;;;;13.30;100.00;101324.38;6204779;23;20013;-76
2022/10/16 08:56:21;;;;;;;8.80;2.95;;;;;;;13.40;100.00;101330.09;6204339;23;20009;-76
2022/10/16 08:58:47;;;;;;;6.75;2.45;;;;;;;13.35;100.00;101338.88;6202117;23;20009;-76
2022/10/16 09:01:15;;;;;;;8.77;3.05;;;;;;;13.41;100.00;101342.16;6202730;23;20001;-76
2022/10/16 09:03:59;;;;;;;7.43;2.42;;;;;;;13.48;100.00;101353.47;6178704;23;20005;-76
2022/10/16 09:06:50;;;;;;;6.35;2.75;;;;;;;13.58;100.00;101351.97;6207548;23;20331;-76
2022/10/16 09:09:21;;;;;;;4.80;2.40;;;;;;;13.51;100.00;101355.50;6204804;23;20428;-76
2022/10/16 09:11:58;;;;;;;7.63;2.53;;;;;;;13.66;100.00;101352.84;6204370;23;20366;-76
2022/10/16 09:14:42;;;;;;;7.28;2.28;;;;;;;13.71;100.00;101360.94;6205399;23;20506;-76
2022/10/16 09:17:16;;;;;;;9.60;2.50;;;;;;;13.78;100.00;101366.63;6201570;23;20565;-77
2022/10/16 09:19:51;;;;;;;4.57;2.03;;;;;;;13.85;100.00;101372.31;6201381;23;20126;-76
2022/10/16 09:22:19;;;;;;;6.85;2.33;;;;;;;13.87;99.63;101369.94;6174728;23;20440;-75
2022/10/16 09:24:45;;;;;;;7.30;1.98;;;;;;;13.84;99.39;101381.94;6203086;23;20416;-76
2022/10/16 09:27:13;;;;;;;6.88;2.25;;;;;;;13.90;99.22;101380.41;6203745;23;20015;-76
2022/10/16 09:29:38;;;;;;;8.15;3.08;;;;;;;13.99;99.28;101386.50;6206712;23;20534;-78
2022/10/16 09:32:17;;;;;;;7.88;2.20;;;;;;;13.96;98.52;101390.09;6204653;23;20005;-76
2022/10/16 09:34:50;;;;;;;5.55;1.92;;;;;;;14.03;97.67;101384.50;6204075;23;20075;-76
2022/10/16 09:37:19;;;;;;;6.55;2.35;;;;;;;14.09;97.95;101384.16;6175494;23;20008;-76
2022/10/16 09:39:49;;;;;;;7.05;1.88;;;;;;;14.12;97.51;101397.47;6198576;23;20358;-76
2022/10/16 09:42:31;;;;;;;12.50;2.30;;;;;;;13.95;97.14;101404.56;6200015;23;20008;-76
2022/10/16 09:44:57;;;;;;;14.43;3.25;;;;;;;14.18;95.45;101407.16;6202380;23;19997;-76
2022/10/16 09:47:30;;;;;;;9.68;1.90;;;;;;;14.24;93.99;101400.78;6203009;23;20001;-76
2022/10/16 09:50:01;;;;;;;11.50;2.95;;;;;;;14.18;94.21;101407.16;6203204;23;19996;-76
2022/10/16 09:52:28;;;;;;;14.63;2.87;;;;;;;14.44;93.08;101415.41;6203082;23;20308;-76
2022/10/16 09:54:55;;;;;;;7.20;2.15;;;;;;;14.54;92.62;101413.06;6202308;23;20230;-75
2022/10/16 09:57:21;;;;;;;11.68;2.50;;;;;;;14.41;92.93;101412.56;6175427;23;20447;-76
2022/10/16 09:59:49;;;;;;;9.40;2.45;;;;;;;14.72;92.80;101419.66;6196560;23;20073;-76
2022/10/16 10:02:17;;;;;;;8.77;1.98;;;;;;;14.80;90.08;101409.22;6168125;23;20108;-77
2022/10/16 10:04:49;;;;;;;9.50;3.28;;;;;;;14.67;90.91;101410.75;6202467;23;20009;-77
2022/10/16 10:07:24;;;;;;;11.43;2.83;;;;;;;14.66;90.69;101409.94;6202957;23;20004;-77
2022/10/16 10:09:49;;;;;;;10.35;2.30;;;;;;;14.77;91.03;101410.00;6202832;23;20001;-77
2022/10/16 10:12:21;;;;;;;7.53;2.03;;;;;;;14.68;90.19;101418.81;6197541;22;20025;-77
2022/10/16 10:14:49;;;;;;;10.07;3.03;;;;;;;14.59;91.39;101438.09;6324235;22;20009;-76
2022/10/16 10:17:21;;;;;;;15.75;3.20;;;;;;;14.53;91.51;101423.53;6334458;22;20243;-75
2022/10/16 10:19:54;;;;;;;14.57;2.95;;;;;;;14.57;90.73;101430.03;6364651;22;20422;-75
2022/10/16 10:22:38;;;;;;;10.43;2.83;;;;;;;14.61;90.10;101430.06;6363051;22;20006;-76
2022/10/16 10:25:03;;;;;;;8.15;2.33;;;;;;;14.57;91.31;101437.66;6364160;22;20018;-75
2022/10/16 10:27:37;;;;;;;9.13;2.30;;;;;;;14.52;91.78;101443.63;6364507;22;20005;-75
2022/10/16 10:30:18;;;;;;;12.52;3.42;;;;;;;14.69;91.59;101451.41;6364485;22;20029;-75
2022/10/16 10:33:02;;;;;;;10.70;2.85;;;;;;;14.60;90.24;101445.31;6360939;22;20089;-75
2022/10/16 10:36:04;;;;;;;18.83;2.75;;;;;;;14.59;89.17;101443.72;6336624;22;20006;-75
2022/10/16 10:38:51;;;;;;;12.18;2.50;;;;;;;14.43;90.25;101458.84;6365179;22;20394;-75
2022/10/16 10:41:28;;;;;;;14.00;2.58;;;;;;;14.66;87.83;101455.03;6340605;22;20059;-75
2022/10/16 10:44:09;;;;;;;7.90;1.98;;;;;;;14.73;87.42;101452.25;6364543;22;20037;-75
2022/10/16 10:46:45;;;;;;;17.33;3.05;;;;;;;14.75;87.51;101469.56;6363845;22;20479;-75
2022/10/16 10:49:31;;;;;;;8.95;1.95;;;;;;;14.87;87.52;101473.28;6363245;22;19999;-75
2022/10/16 10:52:23;;;;;;;5.95;1.90;;;;;;;14.86;87.52;101480.09;6336864;22;20089;-75
2022/10/16 10:55:23;;;;;;;12.63;2.88;;;;;;;14.84;87.51;101472.88;6365517;22;20504;-75
2022/10/16 10:58:26;;;;;;;9.38;2.70;;;;;;;14.86;86.64;101488.56;6362239;22;20314;-74
2022/10/16 11:01:13;;;;;;;11.95;1.88;;;;;;;14.95;85.38;101477.75;6338961;22;20319;-75
2022/10/16 11:04:16;;;;;;;7.78;2.53;;;;;;;15.02;85.39;101489.06;6337261;22;20460;-74
2022/10/16 11:06:59;;;;;;;11.60;2.20;;;;;;;14.93;86.26;101480.16;6364848;22;20303;-75
2022/10/16 11:09:32;;;;;;;9.05;2.30;;;;;;;15.24;83.78;101489.97;6367856;22;19998;-74
2022/10/16 11:12:05;;;;;;;10.02;2.08;;;;;;;15.16;85.65;101477.06;6366584;22;20494;-74
2022/10/16 11:14:34;;;;;;;;;;;;;;;15.29;83.88;101491.63;6367889;22;20037;-77
2022/10/16 11:17:10;;;;;;;8.50;2.03;;;;;;;15.31;82.98;101483.59;6363774;22;19906;-75
2022/10/16 11:19:47;;;;;;;15.25;3.88;;;;;;;15.13;83.03;101486.31;6366959;22;20085;-75
2022/10/16 11:22:26;;;;;;;12.25;2.20;;;;;;;15.23;82.88;101500.47;6365503;22;20410;-74
2022/10/16 11:24:59;;;;;;;6.38;2.00;;;;;;;15.08;81.83;101498.78;6338179;22;20059;-74
2022/10/16 11:27:43;;;;;;;16.02;3.42;;;;;;;14.99;81.41;101495.50;6365085;22;20030;-74
2022/10/16 11:30:18;;;;;;;17.50;2.83;;;;;;;14.86;81.46;101497.03;6338693;22;19995;-74
2022/10/16 11:33:08;;;;;;;16.00;2.58;;;;;;;15.01;80.59;101504.34;6362172;22;20089;-74
2022/10/16 11:35:49;;;;;;;13.38;2.67;;;;;;;15.00;81.80;101500.72;6338510;22;20055;-74
2022/10/16 11:38:29;;;;;;;15.63;2.75;;;;;;;15.01;81.82;101504.34;6352860;22;20426;-74
2022/10/16 11:41:00;;;;;;;8.18;2.85;;;;;;;15.02;81.51;101500.34;6331915;22;19994;-75
2022/10/16 11:43:37;;;;;;;11.80;3.13;;;;;;;15.28;82.33;101512.56;6332047;22;20006;-75
2022/10/16 11:46:12;;;;;;;7.03;2.40;;;;;;;15.27;81.06;101510.97;6332705;22;20464;-75
2022/10/16 11:48:44;;;;;;;13.18;3.55;;;;;;;15.35;80.47;101509.81;6359554;22;20330;-75
2022/10/16 11:51:40;;;;;;;7.95;2.42;;;;;;;15.24;79.62;101513.38;6357698;22;20735;-75
2022/10/16 11:54:28;;;;;;;7.47;1.92;;;;;;;15.39;85.80;101516.25;6349326;22;20067;-76
2022/10/16 11:56:57;;;;;;;13.55;3.03;;;;;;;15.31;78.89;101520.25;6332171;22;20009;-75
2022/10/16 11:59:30;;;;;;;10.10;2.97;;;;;;;15.47;77.64;101523.53;6333904;22;20058;-76
2022/10/16 12:02:18;;;;;;;10.00;3.58;;;;;;;15.35;79.02;101523.91;6328574;22;20006;-76
2022/10/16 12:04:50;;;;;;;12.13;2.22;;;;;;;15.40;77.25;101526.34;6357907;22;20334;-76
2022/10/16 12:07:22;;;;;;;;;;;;;;;15.44;81.16;101530.78;6331111;22;20449;-76
2022/10/16 12:09:47;;;;;;;7.53;1.75;;;;;;;15.47;78.43;101534.81;6332115;22;20318;-77
2022/10/16 12:12:37;;;;;;;7.75;2.05;;;;;;;15.39;80.89;101530.34;6333255;22;20124;-77
2022/10/16 12:15:28;;;;;;;12.50;2.38;;;;;;;15.25;81.15;101542.38;6361299;22;20013;-76
2022/10/16 12:17:54;;;;;;;12.27;2.97;;;;;;;15.40;80.49;101543.25;6329845;22;20075;-76
2022/10/16 12:20:25;;;;;;;13.25;3.10;;;;;;;15.27;80.23;101539.16;6330514;22;20013;-76
2022/10/16 12:22:58;;;;;;;6.57;2.33;;;;;;;15.49;79.09;101540.88;6333794;22;20085;-75
2022/10/16 12:25:35;;;;;;;12.85;2.45;;;;;;;15.43;76.27;101546.09;6330638;22;20122;-77
2022/10/16 12:28:12;;;;;;;13.00;3.00;;;;;;;15.31;80.95;101552.09;6361579;22;20128;-76
2022/10/16 12:30:38;;;;;;;11.60;2.53;;;;;;;15.64;74.02;101542.56;6358518;22;20006;-77
2022/10/16 12:33:06;;;;;;;16.38;2.75;;;;;;;15.60;75.74;101547.41;6354843;22;20339;-76
2022/10/16 12:35:42;;;;;;;7.55;1.73;;;;;;;15.52;72.59;101545.75;6356874;22;20058;-76
2022/10/16 12:38:17;;;;;;;10.57;2.65;;;;;;;15.77;74.84;101545.06;6358158;22;20002;-76
2022/10/16 12:40:44;;;;;;;8.13;2.42;;;;;;;15.49;76.69;101545.72;6360441;22;20007;-76
2022/10/16 12:43:36;;;;;;;9.15;2.20;;;;;;;15.59;76.70;101557.06;6360071;22;20040;-76
2022/10/16 12:46:05;;;;;;;10.20;2.40;;;;;;;15.93;74.25;101547.53;6330008;22;20010;-76
2022/10/16 12:48:31;;;;;;;9.55;3.58;;;;;;;15.69;77.80;101560.34;6328741;22;20312;-76
2022/10/16 12:50:56;;;;;;;9.98;2.30;;;;;;;15.64;78.26;101565.16;6362531;22;20039;-76
2022/10/16 12:53:25;;;;;;;9.70;2.28;;;;;;;15.57;78.88;101556.63;6330837;22;20097;-76
2022/10/16 12:55:57;;;;;;;10.43;2.75;;;;;;;15.58;77.17;101571.56;6331232;22;20010;-76
2022/10/16 12:58:37;;;;;;;14.00;2.92;;;;;;;15.63;81.98;101569.16;6358855;22;20077;-76
2022/10/16 13:01:19;;;;;;;12.52;3.42;;;;;;;15.74;79.52;101574.09;6358577;22;20008;-76
2022/10/16 13:04:14;;;;;;;10.30;2.35;;;;;;;15.62;77.52;101566.72;6358367;22;20371;-76
2022/10/16 13:06:51;;;;;;;7.85;1.90;;;;;;;15.84;74.59;101573.31;6359551;22;20020;-77
2022/10/16 13:09:39;;;;;;;9.25;2.22;;;;;;;15.68;77.13;101570.00;6353015;22;20009;-77
2022/10/16 13:12:10;;;;;;;9.80;2.78;;;;;;;15.57;76.38;101565.09;6359634;22;20005;-76
2022/10/16 13:14:58;;;;;;;14.82;3.17;;;;;;;15.78;74.08;101577.72;6358382;22;19994;-76
2022/10/16 13:17:39;;;;;;;8.55;2.78;;;;;;;15.77;74.40;101568.47;6359186;22;20006;-75
2022/10/16 13:20:20;;;;;;;11.43;2.72;;;;;;;15.79;74.75;101576.50;6358938;22;20026;-76
2022/10/16 13:23:09;;;;;;;17.13;5.57;;;;;;;15.99;75.46;101574.97;6361131;22;20418;-76
2022/10/16 13:25:46;;;;;;;16.88;3.67;;;;;;;16.00;78.52;101570.97;6358311;22;20070;-76
2022/10/16 13:28:13;;;;;;;11.25;2.53;;;;;;;15.89;73.53;101584.22;6356164;22;20418;-75
2022/10/16 13:30:44;;;;;;;10.80;2.72;;;;;;;15.72;75.61;101577.28;6332089;22;20733;-76
2022/10/16 13:33:09;;;;;;;9.98;2.53;;;;;;;15.94;75.64;101575.38;6357614;22;20006;-76
2022/10/16 13:35:36;;;;;;;9.57;3.15;;;;;;;15.81;74.70;101582.56;6360038;22;20002;-76
2022/10/16 13:38:17;;;;;;;8.90;2.90;;;;;;;15.76;75.30;101572.47;6358242;22;20029;-76
2022/10/16 13:40:54;;;;;;;11.93;2.50;;;;;;;15.81;73.24;101582.56;6360730;22;20307;-76
2022/10/16 13:43:23;;;;;;;11.82;2.20;;;;;;;15.96;71.71;101589.06;6330650;22;20037;-76
2022/10/16 13:45:57;;;;;;;10.13;2.53;;;;;;;15.97;72.38;101577.41;6357474;22;20002;-76
2022/10/16 13:48:22;;;;;;;11.55;2.50;;;;;;;15.94;73.63;101586.69;6328725;22;20006;-76
2022/10/16 13:51:16;;;;;;;11.23;3.50;;;;;;;16.11;72.47;101590.75;6362166;22;20009;-76
2022/10/16 13:53:43;;;;;;;5.53;2.33;;;;;;;15.91;71.63;101590.28;6356419;22;20002;-76
2022/10/16 13:56:18;;;;;;;5.85;2.30;;;;;;;15.96;72.35;101594.72;6355140;22;20422;-75
2022/10/16 13:58:44;;;;;;;5.43;2.10;;;;;;;15.77;76.84;101585.41;6355305;22;20010;-76
2022/10/16 14:01:19;;;;;;;6.68;2.30;;;;;;;15.90;71.10;101605.63;6331655;22;20006;-76
2022/10/16 14:03:46;;;;;;;12.20;2.83;;;;;;;15.86;73.41;101599.13;6329267;22;20460;-76
2022/10/16 14:06:15;;;;;;;7.15;2.60;;;;;;;15.82;73.69;101606.78;6354028;22;20369;-76
2022/10/16 14:09:02;;;;;;;7.50;2.28;;;;;;;15.77;74.99;101607.97;6328653;22;20320;-76
2022/10/16 14:11:27;;;;;;;9.35;2.00;;;;;;;15.90;73.50;101608.44;6359012;22;20077;-76
2022/10/16 14:13:53;;;;;;;6.78;2.00;;;;;;;15.92;70.17;101622.97;6331155;22;20037;-76
2022/10/16 14:16:31;;;;;;;7.55;2.35;;;;;;;15.86;70.49;101618.91;6358024;22;20006;-76
2022/10/16 14:19:03;;;;;;;10.60;2.53;;;;;;;15.90;70.80;101616.91;6357689;22;20440;-76
2022/10/16 14:21:29;;;;;;;6.13;2.35;;;;;;;15.83;74.21;101628.16;6359703;22;20469;-76
2022/10/16 14:23:55;;;;;;;6.45;2.15;;;;;;;15.89;71.05;101628.59;6330951;22;20030;-75
2022/10/16 14:26:24;;;;;;;7.10;1.90;;;;;;;16.02;69.70;101635.50;6358718;22;20006;-75
2022/10/16 14:29:04;;;;;;;7.43;2.15;;;;;;;15.84;74.18;101635.44;6330918;22;20013;-75
2022/10/16 14:31:32;;;;;;;17.58;3.90;;;;;;;15.78;71.11;101629.34;6358093;22;20033;-75
2022/10/16 14:33:59;;;;;;;8.60;2.78;;;;;;;15.76;72.83;101639.41;6357102;22;19998;-75
2022/10/16 14:36:26;;;;;;;11.75;2.72;;;;;;;15.90;71.12;101630.22;6359774;22;20385;-75
2022/10/16 14:39:05;;;;;;;11.10;2.25;;;;;;;15.71;72.54;101629.28;6358866;22;20040;-76
2022/10/16 14:41:43;;;;;;;7.20;2.05;;;;;;;15.75;71.58;101623.69;6331105;22;20013;-76
2022/10/16 14:44:12;;;;;;;7.22;3.15;;;;;;;15.77;75.19;101618.44;6357093;22;20330;-75
2022/10/16 14:46:41;;;;;;;5.57;1.65;;;;;;;15.73;71.74;101617.63;6355759;22;20081;-75
2022/10/16 14:49:09;;;;;;;10.18;2.40;;;;;;;15.69;73.68;101622.44;6358600;22;19998;-75
2022/10/16 14:51:35;;;;;;;8.57;2.20;;;;;;;15.67;75.07;101619.19;6331264;22;20087;-75
2022/10/16 14:54:01;;;;;;;8.40;2.70;;;;;;;15.59;73.39;101618.34;6361488;22;20088;-76
2022/10/16 14:56:41;;;;;;;11.45;2.42;;;;;;;15.60;75.20;101626.41;6354258;22;20511;-75
2022/10/16 14:59:13;;;;;;;7.60;2.15;;;;;;;15.63;73.59;101624.81;6353964;22;20609;-75
2022/10/16 15:01:38;;;;;;;8.15;2.17;;;;;;;15.54;74.39;101628.00;6350705;22;20101;-75
2022/10/16 15:04:03;;;;;;;9.77;2.50;;;;;;;15.43;76.53;101638.38;6352377;22;20498;-75
2022/10/16 15:06:29;;;;;;;11.23;2.97;;;;;;;15.50;74.37;101635.63;6354048;22;20017;-75
2022/10/16 15:08:54;;;;;;;7.80;2.33;;;;;;;15.49;76.26;101636.00;6354501;22;20009;-75
2022/10/16 15:11:19;;;;;;;5.95;2.30;;;;;;;15.47;77.37;101644.84;6356610;22;20013;-75
2022/10/16 15:13:45;;;;;;;9.43;3.15;;;;;;;15.40;79.88;101644.81;6354449;22;20392;-76
2022/10/16 15:16:13;;;;;;;10.10;3.05;;;;;;;15.46;81.64;101648.88;6327551;22;20013;-75
2022/10/16 15:18:39;;;;;;;10.65;2.85;;;;;;;15.44;83.25;101651.28;6326426;22;20187;-75
2022/10/16 15:21:04;;;;;;;8.07;2.50;;;;;;;15.29;84.32;101649.59;6355505;22;20006;-76
2022/10/16 15:23:29;;;;;;;6.75;2.30;;;;;;;15.24;83.51;101645.94;6330100;22;20337;-75
2022/10/16 15:25:56;;;;;;;9.98;2.50;;;;;;;15.21;86.91;101646.69;6326781;22;20013;-75
2022/10/16 15:28:24;;;;;;;13.75;2.70;;;;;;;15.16;84.11;101652.72;6355120;22;20448;-75
2022/10/16 15:30:51;;;;;;;13.27;2.60;;;;;;;15.16;85.04;101649.88;6359362;22;20010;-75
2022/10/16 15:33:19;;;;;;;5.70;2.38;;;;;;;15.09;86.17;101647.00;6353435;22;20319;-75
2022/10/16 15:35:49;;;;;;;8.75;2.38;;;;;;;15.10;87.72;101643.00;6328080;22;20033;-75
2022/10/16 15:38:15;;;;;;;6.93;2.33;;;;;;;15.09;86.88;101649.00;6355841;22;20346;-75
2022/10/16 15:40:41;;;;;;;18.73;3.80;;;;;;;15.08;87.76;101653.84;6355984;22;19999;-75
2022/10/16 15:43:06;;;;;;;7.85;2.47;;;;;;;15.03;88.30;101648.56;6353555;22;20002;-75
2022/10/16 15:45:32;;;;;;;9.45;2.97;;;;;;;14.98;89.54;101651.75;6330966;22;20327;-75
2022/10/16 15:47:57;;;;;;;9.10;2.70;;;;;;;14.95;89.32;101647.69;6354262;22;20006;-75
2022/10/16 15:50:22;;;;;;;7.40;3.42;;;;;;;14.93;89.64;101649.28;6355573;22;20002;-75
2022/10/16 15:52:50;;;;;;;8.48;2.53;;;;;;;14.87;90.11;101650.84;6356635;22;20006;-75
2022/10/16 15:55:15;;;;;;;10.48;2.67;;;;;;;14.89;91.35;101648.44;6329607;22;20006;-75
2022/10/16 15:57:42;;;;;;;8.52;3.17;;;;;;;14.86;91.57;101646.41;6357087;22;20441;-75
2022/10/16 16:00:12;;;;;;;10.00;3.45;;;;;;;14.81;91.65;101642.72;6326922;22;19999;-75
2022/10/16 16:02:38;;;;;;;16.60;3.75;;;;;;;14.80;92.25;101643.94;6355557;22;20006;-75
2022/10/16 16:05:06;;;;;;;9.75;3.20;;;;;;;14.72;91.93;101652.72;6355885;22;20102;-76
2022/10/16 16:07:35;;;;;;;12.15;2.42;;;;;;;14.67;92.41;101648.22;6328127;22;20021;-76
2022/10/16 16:10:02;;;;;;;7.97;2.63;;;;;;;14.73;93.18;101648.69;6356237;22;20380;-75
2022/10/16 16:12:27;;;;;;;11.43;4.22;;;;;;;14.68;92.61;101649.88;6356203;22;20017;-76
2022/10/16 16:14:53;;;;;;;6.72;3.15;;;;;;;14.71;93.37;101651.09;6357128;22;20013;-75
2022/10/16 16:17:18;;;;;;;8.90;3.80;;;;;;;14.70;93.31;101646.66;6354377;22;20065;-75
2022/10/16 16:19:43;;;;;;;11.40;3.20;;;;;;;14.72;94.15;101661.97;6361047;22;20009;-75
2022/10/16 16:22:09;;;;;;;7.65;4.43;;;;;;;14.71;94.30;101662.38;6330318;22;20013;-76
2022/10/16 16:24:34;;;;;;;7.85;2.88;;;;;;;14.67;94.22;101656.69;6360259;22;20002;-75
2022/10/16 16:26:59;;;;;;;5.65;3.35;;;;;;;14.64;94.89;101661.09;6357034;22;20005;-76
2022/10/16 16:29:25;;;;;;;5.63;3.08;;;;;;;14.62;95.99;101671.13;6334989;22;19997;-76
2022/10/16 16:31:56;;;;;;;9.10;4.15;;;;;;;14.58;94.81;101673.09;6362272;22;20553;-75
2022/10/16 16:34:23;;;;;;;13.00;4.50;;;;;;;14.55;95.74;101676.69;6359314;22;20095;-76
2022/10/16 16:36:48;;;;;;;11.45;5.03;;;;;;;14.52;96.70;101677.44;6331220;22;20006;-75
2022/10/16 16:39:13;;;;;;;15.57;6.32;;;;;;;14.51;95.12;101670.19;6359684;22;20010;-75